Weather observations for the past three days for
Bryan Coulter Field
Metric (Imperial)
Date Time (cdt) Wind (kph) Vis. (km) Weather Sky Cond. Temperature (ºC) Relative Humidity Wind Chill (°C) Heat Index (°C) Pressure Precipitation (cm)
Air Dwpt 6 hour altimeter (cm) sea level (mb) 1 hr 3 hr 6 hr
Max. Min.
09 11:15 NW 6 16.09 Overcast BKN013 OVC018 25 22.5 86% 26 75.9 0.0
09 10:55 NW 6 16.09 Overcast OVC011 25 22.6 87% 26 75.9 0.0
09 10:35 SW 6 16.09 Overcast OVC011 24.7 22.5 88% 25 75.9 0.0
09 10:15 S 6 11.27 Overcast OVC007 24 22.3 90% 24 75.92 0.0
09 09:55 S 7 8.05 Fog/Mist OVC007 23.7 22.3 92% 75.87 0.0
09 09:35 SW 6 11.27 Overcast OVC007 23.6 22.2 92% 75.84 0.0
09 09:15 S 9 11.27 Overcast OVC005 23.5 22.2 92% 75.82 0.0
09 08:55 S 11 8.05 Fog/Mist OVC005 23.5 22.2 92% 75.82 0.0
09 08:35 SW 9 8.05 Fog/Mist OVC005 23.3 22.3 94% 75.79 0.0
09 08:15 SW 9 6.44 Fog/Mist OVC005 23.1 22.6 97% 75.79 0.0
09 07:55 S 6 4.83 Fog/Mist OVC003 22.7 22.5 99% 75.79 0.0
09 07:35 Calm 2.41 Fog/Mist OVC003 22.7 22.5 99% 75.79 0.0
09 07:15 Calm 2.01 Fog/Mist OVC002 22.6 22.5 99% 75.84 0.0
09 06:55 Calm 2.41 Fog/Mist OVC002 22.6 22.5 22.9 22.6 99% 75.84 0.0
09 06:35 W 6 2.41 Fog/Mist OVC002 22.6 22.5 99% 75.84 0.0
09 06:15 W 6 2.41 Fog/Mist OVC004 22.7 22.5 99% 75.84 0.0
09 05:55 Calm 3.22 Fog/Mist OVC004 22.7 22.5 99% 75.84 0.0
09 05:35 Calm 2.82 Fog/Mist OVC004 22.7 22.5 99% 75.84 0.0
09 05:15 Calm 2.01 Fog/Mist OVC004 22.7 22.5 99% 75.84 0.0
09 04:55 Calm 3.22 Fog/Mist OVC004 22.8 22.5 98% 75.84 0.0
09 04:35 Calm 4.02 Fog/Mist OVC004 22.8 22.5 98% 75.79 0.0
09 04:15 Calm 4.83 Fog/Mist OVC004 22.8 22.2 96% 75.82 0.0
09 03:55 Calm 6.44 Fog/Mist OVC004 22.8 22.1 96% 75.82 0.0
09 03:35 Calm 4.83 Fog/Mist OVC004 22.8 22.2 96% 75.84 0.0
09 03:15 Calm 6.44 Fog/Mist OVC004 22.7 22.1 96% 75.84 0.0
09 02:55 S 6 6.44 Fog/Mist OVC006 22.7 22.1 96% 75.84 0.0
09 02:35 Calm 6.44 Fog/Mist OVC006 22.8 22 95% 75.84 0.0
09 02:15 S 11 8.05 Fog/Mist OVC006 22.8 21.8 94% 75.87 0.0
09 01:55 S 6 11.27 Overcast OVC006 22.8 21.8 94% 75.87 0.0
09 01:35 SE 9 11.27 Overcast OVC006 22.8 21.8 94% 75.84 0.0
09 01:15 SE 6 11.27 Overcast OVC006 22.8 21.7 94% 75.84 0.0
09 00:55 S 7 11.27 Overcast OVC006 23 21.7 25.5 22.9 92% 75.84 0.0
09 00:35 S 9 11.27 Overcast OVC006 23 21.7 92% 75.84 0.0
09 00:15 S 17 11.27 Overcast OVC006 23 21.7 92% 75.82 0.0
08 23:55 SE 19 16.09 Overcast OVC008 23 21.7 92% 75.82 0.0
08 23:35 SE 15 16.09 Overcast OVC008 23.2 21.6 91% 75.79 0.0
08 23:15 S 17 G 26 16.09 Overcast OVC010 23.5 21.5 89% 75.79 0.0
08 22:55 SE 17 G 28 16.09 Mostly Cloudy BKN012 BKN070 23.4 21.4 89% 75.79 0.0
08 22:35 SE 17 16.09 Mostly Cloudy BKN070 23.3 21.5 90% 75.77 0.0
08 22:15 SE 15 16.09 Mostly Cloudy BKN070 23.5 21.5 89% 75.77 0.0
08 21:55 SE 13 16.09 Mostly Cloudy BKN070 23.5 21.5 89% 75.77 0.0
08 21:35 SE 13 16.09 Mostly Cloudy BKN070 23.7 21.5 88% 75.77 0.0
08 21:15 SE 11 16.09 Overcast SCT025 OVC070 23.7 21.6 88% 75.74 0.0
08 20:55 SE 11 16.09 Overcast BKN025 OVC070 24 21.6 87% 24 75.74 0.0
08 20:35 SE 9 16.09 Overcast OVC025 24 21.5 86% 24 75.74 0.0
08 20:15 SE 7 16.09 Mostly Cloudy SCT021 BKN025 BKN060 24 21.5 86% 24 75.74 0.0
08 19:55 SE 9 16.09 Overcast BKN021 BKN027 OVC060 24.5 21.5 83% 25 75.72 0.0
08 19:35 SE 9 16.09 Overcast BKN019 BKN028 OVC060 25 21.7 82% 26 75.72 0.0
08 19:15 SE 7 16.09 Mostly Cloudy SCT019 SCT026 BKN060 25 21.6 81% 26 75.72 0.0
08 18:55 SE 11 16.09 Mostly Cloudy SCT019 SCT026 BKN085 25.5 21.5 26.6 22.1 79% 27 75.72 0.0
08 18:35 SE 13 16.09 Partly Cloudy SCT090 26.1 21.6 76% 28 75.72 0.0
08 18:15 SE 15 16.09 Mostly Cloudy SCT024 BKN029 BKN043 26.1 21.6 76% 28 75.72 0.0
08 17:55 E 9 16.09 Mostly Cloudy BKN024 BKN028 BKN042 25.8 21.5 77% 27 75.74 0.0
08 17:35 Calm 16.09 Overcast BKN024 OVC042 26.2 21.3 74% 28 75.74 0.0
08 17:15 SE 7 16.09 Mostly Cloudy BKN026 BKN044 26.5 21.3 73% 28 75.74 0.0
08 16:55 SE 9 16.09 Partly Cloudy SCT024 26 21 74% 27 75.74 0.0
08 16:35 SE 7 16.09 Overcast OVC022 25.9 21.1 75% 27 75.77 0.0
08 16:15 E 6 16.09 Overcast BKN022 OVC070 25.5 20.6 74% 27 75.79 0.0
08 15:55 Calm 16.09 Mostly Cloudy SCT018 SCT026 BKN070 25.7 20.7 74% 27 75.79 0.0
08 15:35 E 9 16.09 Overcast SCT018 OVC024 26 20.9 74% 27 75.82 0.0
08 15:15 Calm 16.09 Overcast BKN018 OVC024 25.4 20.8 76% 27 75.84 0.0
08 14:55 Calm 16.09 Mostly Cloudy BKN018 25 20.4 76% 26 75.84 0.0
08 14:35 NE 6 16.09 Mostly Cloudy BKN016 BKN022 24.8 20.3 76% 26 75.87 0.0
08 14:15 Calm 16.09 Overcast OVC016 24.7 20.3 77% 25 75.9 0.0
08 13:55 Calm 16.09 Overcast OVC016 23.6 19.8 79% 75.92 0.0
08 13:35 SE 6 16.09 Overcast BKN014 OVC020 22.9 19.5 81% 75.95 0.0
08 13:15 SE 6 16.09 Overcast OVC017 23 19.4 80% 75.97 0.0
08 12:55 Calm 16.09 Overcast OVC015 22.2 19.1 22.2 16.6 83% 76 0.0
08 12:35 Calm 16.09 Overcast OVC015 21.9 18.7 82% 76 0.0
08 12:15 NE 6 16.09 Overcast OVC015 21.6 18.6 83% 76 0.0
08 11:55 NE 9 16.09 Overcast OVC017 20.8 18.1 85% 76 0.0
08 11:35 Calm 16.09 Overcast SCT009 OVC017 20.5 18 86% 76.02 0.0
08 11:15 Calm 16.09 Overcast SCT009 OVC017 20.1 17.8 87% 76.05 0.0
08 10:55 SE 7 16.09 Overcast OVC017 20 17.4 85% 76.05 0.0
08 10:35 E 9 16.09 Overcast OVC017 19.5 17.2 87% 76.07 0.0
08 10:15 E 9 16.09 Overcast OVC017 18.7 17 90% 76.1 0.0
08 09:55 E 6 16.09 Overcast OVC017 18 16.9 93% 76.1 0.0
08 09:35 E 6 16.09 Overcast OVC019 17.5 16.5 94% 76.1 0.0
08 09:15 E 6 16.09 Overcast OVC019 17.2 16.5 96% 76.1 0.0
08 08:55 Calm 16.09 Overcast OVC021 17 16.6 98% 76.1 0.0
08 08:35 E 9 11.27 Overcast BKN004 BKN011 OVC021 16.9 16.6 98% 76.1 0.0
08 08:15 E 7 4.02 Fog/Mist BKN004 OVC011 16.8 16.5 98% 76.1 0.0
08 07:55 E 7 6.44 Fog/Mist SCT004 BKN011 OVC022 16.7 16.3 98% 76.1 0.0
08 07:35 E 6 6.44 Light Rain SCT004 BKN011 OVC022 16.6 15.8 95% 76.12 0.0
08 07:15 NE 11 16.09 Overcast SCT011 OVC024 16.7 15.3 92% 76.12 0.0
08 06:55 NE 9 16.09 Overcast SCT011 OVC024 16.7 15 17.4 16.2 90% 76.12 0.0
08 06:35 NE 13 16.09 Thunderstorm in Vicinity OVC013 16.6 14.7 89% 76.12 0.0
08 06:15 N 11 16.09 Thunderstorm BKN013 OVC024 16.8 14.6 87% 76.12 0.0
08 05:55 N 7 16.09 Thunderstorm Light Rain OVC024 16.9 14.4 85% 76.1 0.0
08 05:35 NE 7 16.09 Overcast OVC024 17 14 83% 76.1 0.0
08 05:15 NE 6 16.09 Light Rain OVC026 17.4 13.8 80% 76.12 0.0
08 04:55 NE 6 16.09 Overcast OVC026 17.4 13.8 80% 76.1 0.0
08 04:35 NE 6 16.09 Overcast OVC026 17.2 13.7 80% 76.12 0.0
08 04:15 NE 7 16.09 Overcast OVC026 17.1 13.7 81% 76.07 0.0
08 03:55 NE 9 16.09 Overcast OVC028 17 13.8 82% 76.07 0.0
08 03:35 NE 11 16.09 Overcast OVC028 16.8 13.8 83% 76.1 0.0
08 03:15 NE 7 16.09 Overcast OVC030 16.7 13.8 83% 76.1 0.0
08 02:55 E 7 16.09 Overcast OVC030 16.6 14 85% 76.12 0.0
08 02:35 NE 7 16.09 Mostly Cloudy BKN030 16.5 13.8 84% 76.15 0.0
08 02:15 NE 7 16.09 Partly Cloudy SCT030 SCT047 16.5 13.7 84% 76.15 0.0
08 01:55 N 7 16.09 Fair CLR 16.3 13.8 85% 76.17 0.0
08 01:35 NE 7 16.09 Partly Cloudy SCT045 16.2 14 87% 76.15 0.0
08 01:15 N 7 16.09 Fair CLR 16.2 14 87% 76.15 0.0
08 00:55 N 9 16.09 Fair CLR 16.3 14 18.5 16.3 86% 76.17 0.0
08 00:35 N 6 16.09 Fair CLR 16.5 14 85% 76.17 0.0
08 00:15 NE 6 16.09 Fair CLR 16.5 13.9 85% 76.17 0.0
07 23:55 NW 7 16.09 Fair CLR 16.9 13.8 82% 76.23 0.0
07 23:35 NE 11 16.09 Fair CLR 16.6 14 85% 76.15 0.0
07 23:15 N 7 16.09 Fair CLR 16.7 13.8 83% 76.17 0.0
07 22:55 N 7 16.09 Fair CLR 16.8 13.9 83% 76.17 0.0
07 22:35 NE 7 16.09 Fair CLR 16.8 13.9 83% 76.15 0.0
07 22:15 NE 7 16.09 Fair CLR 17 13.8 82% 76.12 0.0
07 21:55 E 7 16.09 Fair CLR 17.1 13.6 80% 76.12 0.0
07 21:35 Calm 16.09 Fair CLR 17.3 13.5 79% 76.15 0.0
07 21:15 E 7 16.09 Fair CLR 17.2 13.7 80% 76.1 0.0
07 20:55 E 7 16.09 Fair CLR 17.2 13.6 80% 76.12 0.0
07 20:35 NE 6 16.09 Fair CLR 17.5 13.6 78% 76.15 0.0
07 20:15 N 7 16.09 Fair CLR 17.6 13.3 76% 76.17 0.0
07 19:55 N 9 16.09 Fair CLR 18 13.3 74% 76.17 0.0
07 19:35 N 9 16.09 Fair CLR 18.1 13.1 73% 76.17 0.0
07 19:15 N 6 16.09 Fair CLR 18.5 13.1 71% 76.2 0.0
07 18:55 Calm 16.09 Partly Cloudy SCT120 18.6 13 20.7 18.6 70% 76.2 0.0
07 18:35 Calm 16.09 Partly Cloudy SCT120 18.7 12.8 69% 76.2 0.0
07 18:15 NE 9 16.09 Fair CLR 18.8 12.3 66% 76.17 0.0
07 17:55 Calm 16.09 Fair CLR 19.1 12.6 66% 76.23 0.0
07 17:35 N 9 16.09 Fair CLR 19 12.3 65% 76.23 0.0
07 17:15 N 19 G 26 16.09 Fair CLR 19.8 12.5 63% 76.2 0.0
07 16:55 N 17 16.09 Fair CLR 19.5 12.5 64% 76.23 0.0
07 16:35 N 19 16.09 Fair CLR 19.5 12.5 64% 76.23 0.0
07 16:15 Calm 16.09 Fair CLR 19.1 12.4 65% 76.17 0.0
07 15:55 N 13 16.09 Fair CLR 18.8 11.9 64% 76.23 0.0
07 15:35 N 15 16.09 Fair CLR 19.4 11.9 62% 76.28 0.0
07 15:15 NE 13 16.09 Fair CLR 19.5 12.1 62% 76.25 0.0
07 14:55 NE 17 16.09 Fair CLR 19.6 12.1 62% 76.3 0.0
07 14:35 N 17 16.09 Fair CLR 19.8 12.2 62% 76.33 0.0
07 14:15 N 17 G 26 16.09 Fair CLR 19.9 12.6 63% 76.3 0.0
07 13:55 NE 19 16.09 Fair CLR 20.1 12.4 61% 76.3 0.0
07 13:35 N 13 16.09 Fair CLR 20.2 12.5 61% 76.35 0.0
07 13:15 Calm 16.09 Fair CLR 20.2 12.4 61% 76.38 0.0
07 12:55 N 9 16.09 Fair CLR 19.9 12.4 19.9 14.6 62% 76.43 0.0
07 12:35 N 17 16.09 Fair CLR 19.3 12 63% 76.38 0.0
07 12:15 NE 17 16.09 Fair CLR 18.5 11.9 66% 76.38 0.0
07 11:55 N 15 16.09 Fair CLR 17.7 11.5 67% 76.4 0.0
07 11:35 N 11 16.09 Fair CLR 17.1 11.5 70% 76.43 0.0
07 11:15 N 11 16.09 Fair CLR 17 11.5 70% 76.4 0.0
07 10:55 N 11 16.09 Partly Cloudy SCT020 SCT039 17.1 11.7 71% 76.4 0.0
07 10:35 N 19 G 28 16.09 Partly Cloudy SCT020 16.7 11.1 70% 76.35 0.0
07 10:15 NE 22 16.09 Partly Cloudy SCT034 16.2 11.3 73% 76.35 0.0
07 09:55 NE 17 16.09 Overcast SCT018 OVC034 15.9 11.3 74% 76.43 0.0
07 09:35 N 17 16.09 Overcast BKN016 OVC034 15.4 11.3 77% 76.43 0.0
07 09:15 N 22 G 30 16.09 Overcast OVC016 14.9 11.2 79% 76.38 0.0
07 08:55 N 13 16.09 Overcast OVC014 15.1 11.7 80% 76.45 0.0
07 08:35 N 19 16.09 Overcast OVC012 14.7 11.8 83% 76.4 0.0
07 08:15 N 22 G 30 16.09 Overcast OVC012 15 12.3 84% 76.38 0.0
07 07:55 N 13 16.09 Overcast OVC012 14.8 12.2 85% 76.4 0.0
07 07:35 N 19 16.09 Overcast OVC012 14.7 12.1 85% 76.38 0.0
07 07:15 N 22 G 30 16.09 Overcast OVC012 14.8 12.2 85% 76.35 0.0
07 06:55 N 15 G 28 16.09 Overcast OVC014 14.9 12.2 16.5 14.9 84% 76.35 0.0
07 06:35 N 17 16.09 Overcast OVC014 15.2 12.6 85% 76.25 0.0
07 06:15 N 17 G 31 16.09 Overcast OVC014 15.4 12.9 85% 76.25 0.0
07 05:55 N 15 16.09 Overcast OVC010 15.8 13.5 86% 76.28 0.0
07 05:35 N 15 16.09 Overcast SCT010 OVC017 16.1 13.8 86% 76.25 0.0
07 05:15 N 11 16.09 Overcast OVC015 16.2 13.7 85% 76.25 0.0
07 04:55 NE 9 16.09 Overcast OVC013 16.1 13.5 85% 76.2 0.0
07 04:35 N 13 16.09 Overcast OVC009 16.2 14.1 87% 76.2 0.0
07 04:15 N 6 16.09 Overcast OVC009 16.2 14.3 89% 76.15 0.0
07 03:55 N 11 16.09 Overcast OVC009 16.1 14.3 89% 76.12 0.0
07 03:35 NE 7 16.09 Overcast OVC009 16.2 14.3 89% 76.15 0.0
07 03:15 N 9 16.09 Overcast OVC009 16.2 14.2 88% 76.17 0.0
07 02:55 N 17 G 30 16.09 Overcast OVC011 16.2 14.2 88% 76.2 0.0
07 02:35 NE 9 16.09 Overcast OVC011 16.2 14 87% 76.15 0.0
07 02:15 NE 17 16.09 Overcast OVC013 16.5 14 85% 76.17 0.0
07 01:55 NE 11 16.09 Overcast OVC013 16.5 14 85% 76.17 0.0
07 01:35 NE 11 16.09 Overcast OVC013 16.5 13.8 84% 76.17 0.0
07 01:15 N 13 16.09 Overcast OVC013 16.5 13.8 84% 76.2 0.0
07 00:55 N 19 16.09 Overcast OVC015 16.5 13.7 19 16.5 84% 76.17 0.0
07 00:35 N 13 16.09 Overcast OVC015 16.5 13.7 84% 76.23 0.0
07 00:15 N 20 16.09 Overcast BKN015 OVC020 16.5 13.6 83% 76.17 0.0
06 23:55 N 9 16.09 Overcast OVC015 16.5 13.7 84% 76.23 0.0
06 23:35 N 24 16.09 Overcast OVC015 16.6 13.6 83% 76.15 0.0
06 23:15 N 20 16.09 Overcast OVC015 16.7 13.7 83% 76.2 0.0
06 22:55 N 15 16.09 Overcast OVC017 16.7 13.6 82% 76.15 0.0
06 22:35 N 19 16.09 Overcast OVC017 17 13.7 81% 76.17 0.0
06 22:15 N 11 16.09 Overcast OVC015 17 13.8 82% 76.15 0.0
06 21:55 N 13 16.09 Overcast OVC015 17.1 13.8 81% 76.1 0.0
06 21:35 N 15 16.09 Overcast BKN015 OVC021 17.1 13.7 81% 76.1 0.0
06 21:15 N 15 16.09 Overcast OVC019 17.1 13.8 81% 76.05 0.0
06 20:55 N 15 G 28 16.09 Overcast OVC019 17.2 13.8 81% 76.05 0.0
06 20:35 N 17 16.09 Overcast OVC017 17.4 14 81% 76.02 0.0
06 20:15 N 17 16.09 Overcast OVC017 17.6 14.2 81% 76 0.0
06 19:55 N 11 16.09 Overcast OVC019 17.8 14.3 80% 75.97 0.0
06 19:35 N 11 16.09 Overcast OVC019 18 14.3 79% 75.95 0.0
06 19:15 N 22 16.09 Overcast OVC018 18.4 14.2 77% 75.95 0.0
06 18:55 N 15 16.09 Overcast OVC018 19 14.7 25.2 19 76% 75.92 0.0
06 18:35 N 17 G 28 16.09 Partly Cloudy SCT018 19.5 14.8 74% 75.9 0.0
06 17:55 N 20 G 26 16.09 Mostly Cloudy BKN021 21.1 15.7 71% 75.9 0.0
06 17:35 N 20 G 28 16.09 Partly Cloudy SCT021 SCT040 SCT050 21.1 15.7 71% 75.9 0.0
06 17:15 NW 22 16.09 Overcast BKN021 OVC040 21.2 16 72% 75.87 0.0
06 16:55 N 22 G 30 16.09 Overcast OVC021 21.8 16.3 71% 75.84 0.0
06 16:35 NW 22 G 31 16.09 Overcast OVC021 22.3 16.8 71% 75.84 0.0
06 16:15 NW 24 G 33 16.09 Overcast OVC021 22.8 17.6 73% 75.84 0.0
06 15:55 NW 22 16.09 Overcast OVC021 23.1 18.4 75% 75.84 0.0
06 15:35 Calm 16.09 Overcast OVC019 24 19.5 76% 25 75.84 0.0
06 15:15 N 7 16.09 Overcast OVC017 24.3 20 77% 25 75.84 0.0
06 14:55 NW 7 16.09 Partly Cloudy SCT015 25 20.1 74% 26 75.84 0.0
06 14:35 NE 7 16.09 Fair CLR 24 19.3 75% 25 75.82 0.0
06 14:15 E 9 16.09 Fair CLR 23.2 18.8 76% 75.84 0.0
06 13:55 NE 6 16.09 Fair CLR 22 18 78% 75.84 0.0
06 13:35 N 9 16.09 Fair CLR 21 17 78% 75.84 0.0
06 13:15 N 9 16.09 Mostly Cloudy BKN010 19.7 16.4 81% 75.9 0.0
06 12:55 N 13 16.09 Overcast OVC008 18.9 16.1 26 17.4 84% 75.92 0.0
06 12:35 NE 19 G 28 16.09 Overcast OVC008 18 15.8 87% 75.95 0.0
06 12:15 N 15 16.09 Overcast OVC008 17.4 15.5 89% 76 0.0
06 11:55 N 26 16.09 Overcast OVC010 18.6 16.6 88% 76.02 0.0
Date Time (cdt) Wind (kph) Vis. (km) Weather Sky Cond. Air Dwpt Max. Min. Relative Humidity Wind Chill (°C) Heat Index (°C) altimeter (cm) sea level (mb) 1 hr 3 hr 6 hr
6 hour
Temperature (ºC) Pressure Precipitation (cm)